sensor_id;sensor_type;location;lat;lon;timestamp;temperature;humidity
37408;DHT22;24866;50.248;8.252;2023-04-03T00:01:33;3.20;99.90
37408;DHT22;24866;50.248;8.252;2023-04-03T00:04:04;3.10;99.90
37408;DHT22;24866;50.248;8.252;2023-04-03T00:06:35;2.90;99.90
37408;DHT22;24866;50.248;8.252;2023-04-03T00:09:06;3.10;99.90
37408;DHT22;24866;50.248;8.252;2023-04-03T00:11:37;3.30;99.90
37408;DHT22;24866;50.248;8.252;2023-04-03T00:14:07;3.50;99.90
37408;DHT22;24866;50.248;8.252;2023-04-03T00:16:38;3.50;99.90
37408;DHT22;24866;50.248;8.252;2023-04-03T00:19:08;3.40;99.90
37408;DHT22;24866;50.248;8.252;2023-04-03T00:21:40;3.40;99.90
37408;DHT22;24866;50.248;8.252;2023-04-03T00:24:10;3.40;99.90
37408;DHT22;24866;50.248;8.252;2023-04-03T00:26:41;3.40;99.90
37408;DHT22;24866;50.248;8.252;2023-04-03T00:29:11;3.60;99.90
37408;DHT22;24866;50.248;8.252;2023-04-03T00:31:41;3.70;99.90
37408;DHT22;24866;50.248;8.252;2023-04-03T00:34:11;3.70;99.90
37408;DHT22;24866;50.248;8.252;2023-04-03T00:36:41;3.70;99.90
37408;DHT22;24866;50.248;8.252;2023-04-03T00:39:11;3.70;99.90
37408;DHT22;24866;50.248;8.252;2023-04-03T00:41:43;3.80;99.90
37408;DHT22;24866;50.248;8.252;2023-04-03T00:44:21;3.70;99.90
37408;DHT22;24866;50.248;8.252;2023-04-03T00:46:51;3.60;99.90
37408;DHT22;24866;50.248;8.252;2023-04-03T00:49:23;3.50;99.90
37408;DHT22;24866;50.248;8.252;2023-04-03T00:51:53;3.20;99.90
37408;DHT22;24866;50.248;8.252;2023-04-03T00:54:23;3.10;99.90
37408;DHT22;24866;50.248;8.252;2023-04-03T00:56:56;2.80;99.90
37408;DHT22;24866;50.248;8.252;2023-04-03T00:59:30;3.20;99.90
37408;DHT22;24866;50.248;8.252;2023-04-03T01:02:02;3.30;99.90
37408;DHT22;24866;50.248;8.252;2023-04-03T01:04:34;3.40;99.90
37408;DHT22;24866;50.248;8.252;2023-04-03T01:07:08;3.50;99.90
37408;DHT22;24866;50.248;8.252;2023-04-03T01:09:39;3.60;99.90
37408;DHT22;24866;50.248;8.252;2023-04-03T01:12:15;3.50;99.90
37408;DHT22;24866;50.248;8.252;2023-04-03T01:14:48;3.70;99.90
37408;DHT22;24866;50.248;8.252;2023-04-03T01:17:30;3.80;99.90
37408;DHT22;24866;50.248;8.252;2023-04-03T01:20:48;3.70;99.90
37408;DHT22;24866;50.248;8.252;2023-04-03T01:23:29;3.60;99.90
37408;DHT22;24866;50.248;8.252;2023-04-03T01:26:02;3.60;99.90
37408;DHT22;24866;50.248;8.252;2023-04-03T01:28:35;3.70;99.90
37408;DHT22;24866;50.248;8.252;2023-04-03T01:31:07;3.80;99.90
37408;DHT22;24866;50.248;8.252;2023-04-03T01:33:41;3.90;99.90
37408;DHT22;24866;50.248;8.252;2023-04-03T01:36:18;3.70;99.90
37408;DHT22;24866;50.248;8.252;2023-04-03T01:38:49;3.60;99.90
37408;DHT22;24866;50.248;8.252;2023-04-03T01:41:20;3.60;99.90
37408;DHT22;24866;50.248;8.252;2023-04-03T01:43:50;3.60;99.90
37408;DHT22;24866;50.248;8.252;2023-04-03T01:46:21;3.50;99.90
37408;DHT22;24866;50.248;8.252;2023-04-03T01:48:52;3.50;99.90
37408;DHT22;24866;50.248;8.252;2023-04-03T01:51:22;3.50;99.90
37408;DHT22;24866;50.248;8.252;2023-04-03T01:53:52;3.60;99.90
37408;DHT22;24866;50.248;8.252;2023-04-03T01:56:22;3.70;99.90
37408;DHT22;24866;50.248;8.252;2023-04-03T01:58:52;3.70;99.90
37408;DHT22;24866;50.248;8.252;2023-04-03T02:01:22;3.60;99.90
37408;DHT22;24866;50.248;8.252;2023-04-03T02:03:53;3.70;99.90
37408;DHT22;24866;50.248;8.252;2023-04-03T02:06:24;3.80;99.90
37408;DHT22;24866;50.248;8.252;2023-04-03T02:08:54;3.80;99.90
37408;DHT22;24866;50.248;8.252;2023-04-03T02:11:24;3.70;99.90
37408;DHT22;24866;50.248;8.252;2023-04-03T02:13:54;3.40;99.90
37408;DHT22;24866;50.248;8.252;2023-04-03T02:16:24;3.30;99.90
37408;DHT22;24866;50.248;8.252;2023-04-03T02:18:56;3.50;99.90
37408;DHT22;24866;50.248;8.252;2023-04-03T02:21:27;3.40;99.90
37408;DHT22;24866;50.248;8.252;2023-04-03T02:23:59;3.40;99.90
37408;DHT22;24866;50.248;8.252;2023-04-03T02:26:29;3.50;99.90
37408;DHT22;24866;50.248;8.252;2023-04-03T02:28:59;3.50;99.90
37408;DHT22;24866;50.248;8.252;2023-04-03T02:31:29;3.60;99.90
37408;DHT22;24866;50.248;8.252;2023-04-03T02:34:00;3.60;99.90
37408;DHT22;24866;50.248;8.252;2023-04-03T02:36:30;3.50;99.90
37408;DHT22;24866;50.248;8.252;2023-04-03T02:39:00;3.30;99.90
37408;DHT22;24866;50.248;8.252;2023-04-03T02:41:30;3.30;99.90
37408;DHT22;24866;50.248;8.252;2023-04-03T02:44:05;3.40;99.90
37408;DHT22;24866;50.248;8.252;2023-04-03T02:46:36;3.40;99.90
37408;DHT22;24866;50.248;8.252;2023-04-03T02:49:07;3.40;99.90
37408;DHT22;24866;50.248;8.252;2023-04-03T02:51:37;3.40;99.90
37408;DHT22;24866;50.248;8.252;2023-04-03T02:54:08;3.40;99.90
37408;DHT22;24866;50.248;8.252;2023-04-03T02:56:39;3.40;99.90
37408;DHT22;24866;50.248;8.252;2023-04-03T02:59:09;3.50;99.90
37408;DHT22;24866;50.248;8.252;2023-04-03T03:01:39;3.50;99.90
37408;DHT22;24866;50.248;8.252;2023-04-03T03:04:11;3.50;99.90
37408;DHT22;24866;50.248;8.252;2023-04-03T03:06:40;3.50;99.90
37408;DHT22;24866;50.248;8.252;2023-04-03T03:09:10;3.50;99.90
37408;DHT22;24866;50.248;8.252;2023-04-03T03:11:42;3.40;99.90
37408;DHT22;24866;50.248;8.252;2023-04-03T03:14:12;3.40;99.90
37408;DHT22;24866;50.248;8.252;2023-04-03T03:16:42;3.40;99.90
37408;DHT22;24866;50.248;8.252;2023-04-03T03:19:14;3.30;99.90
37408;DHT22;24866;50.248;8.252;2023-04-03T03:21:46;3.30;99.90
37408;DHT22;24866;50.248;8.252;2023-04-03T03:24:19;3.20;99.90
37408;DHT22;24866;50.248;8.252;2023-04-03T03:26:49;3.30;99.90
37408;DHT22;24866;50.248;8.252;2023-04-03T03:29:19;3.20;99.90
37408;DHT22;24866;50.248;8.252;2023-04-03T03:31:49;3.20;99.90
37408;DHT22;24866;50.248;8.252;2023-04-03T03:34:21;3.20;99.90
37408;DHT22;24866;50.248;8.252;2023-04-03T03:36:51;3.20;99.90
37408;DHT22;24866;50.248;8.252;2023-04-03T03:39:21;3.20;99.90
37408;DHT22;24866;50.248;8.252;2023-04-03T03:41:51;3.20;99.90
37408;DHT22;24866;50.248;8.252;2023-04-03T03:44:22;3.20;99.90
37408;DHT22;24866;50.248;8.252;2023-04-03T03:46:52;3.10;99.90
37408;DHT22;24866;50.248;8.252;2023-04-03T03:49:24;3.10;99.90
37408;DHT22;24866;50.248;8.252;2023-04-03T03:51:55;3.00;99.90
37408;DHT22;24866;50.248;8.252;2023-04-03T03:54:25;2.90;99.90
37408;DHT22;24866;50.248;8.252;2023-04-03T03:56:55;2.90;99.90
37408;DHT22;24866;50.248;8.252;2023-04-03T03:59:25;2.80;99.90
37408;DHT22;24866;50.248;8.252;2023-04-03T04:01:55;2.80;99.90
37408;DHT22;24866;50.248;8.252;2023-04-03T04:04:27;2.80;99.90
37408;DHT22;24866;50.248;8.252;2023-04-03T04:06:57;2.80;99.90
37408;DHT22;24866;50.248;8.252;2023-04-03T04:09:29;2.70;99.90
37408;DHT22;24866;50.248;8.252;2023-04-03T04:11:59;2.70;99.90
37408;DHT22;24866;50.248;8.252;2023-04-03T04:14:29;2.70;99.90
37408;DHT22;24866;50.248;8.252;2023-04-03T04:16:59;2.70;99.90
37408;DHT22;24866;50.248;8.252;2023-04-03T04:19:32;2.60;99.90
37408;DHT22;24866;50.248;8.252;2023-04-03T04:22:03;2.50;99.90
37408;DHT22;24866;50.248;8.252;2023-04-03T04:24:37;2.50;99.90
37408;DHT22;24866;50.248;8.252;2023-04-03T04:27:07;2.50;99.90
37408;DHT22;24866;50.248;8.252;2023-04-03T04:29:38;2.50;99.90
37408;DHT22;24866;50.248;8.252;2023-04-03T04:32:08;2.40;99.90
37408;DHT22;24866;50.248;8.252;2023-04-03T04:34:40;2.40;99.90
37408;DHT22;24866;50.248;8.252;2023-04-03T04:37:09;2.30;99.90
37408;DHT22;24866;50.248;8.252;2023-04-03T04:39:39;2.20;99.90
37408;DHT22;24866;50.248;8.252;2023-04-03T04:42:09;2.20;99.90
37408;DHT22;24866;50.248;8.252;2023-04-03T04:44:41;2.20;99.90
37408;DHT22;24866;50.248;8.252;2023-04-03T04:47:11;2.20;99.90
37408;DHT22;24866;50.248;8.252;2023-04-03T04:49:43;2.20;99.90
37408;DHT22;24866;50.248;8.252;2023-04-03T04:52:15;2.10;99.90
37408;DHT22;24866;50.248;8.252;2023-04-03T04:54:45;2.10;99.90
37408;DHT22;24866;50.248;8.252;2023-04-03T04:57:16;2.10;99.90
37408;DHT22;24866;50.248;8.252;2023-04-03T04:59:46;2.00;99.90
37408;DHT22;24866;50.248;8.252;2023-04-03T05:02:17;1.90;99.90
37408;DHT22;24866;50.248;8.252;2023-04-03T05:04:50;2.00;99.90
37408;DHT22;24866;50.248;8.252;2023-04-03T05:07:20;1.90;99.90
37408;DHT22;24866;50.248;8.252;2023-04-03T05:09:50;1.80;99.90
37408;DHT22;24866;50.248;8.252;2023-04-03T05:12:20;1.80;99.90
37408;DHT22;24866;50.248;8.252;2023-04-03T05:14:50;1.90;99.90
37408;DHT22;24866;50.248;8.252;2023-04-03T05:17:20;2.00;99.90
37408;DHT22;24866;50.248;8.252;2023-04-03T05:19:51;2.00;99.90
37408;DHT22;24866;50.248;8.252;2023-04-03T05:22:21;1.90;99.90
37408;DHT22;24866;50.248;8.252;2023-04-03T05:24:51;1.80;99.90
37408;DHT22;24866;50.248;8.252;2023-04-03T05:27:22;1.90;99.90
37408;DHT22;24866;50.248;8.252;2023-04-03T05:29:53;1.90;99.90
37408;DHT22;24866;50.248;8.252;2023-04-03T05:32:23;2.00;99.90
37408;DHT22;24866;50.248;8.252;2023-04-03T05:34:56;1.80;99.90
37408;DHT22;24866;50.248;8.252;2023-04-03T05:37:26;1.70;99.90
37408;DHT22;24866;50.248;8.252;2023-04-03T05:39:56;1.80;99.90
37408;DHT22;24866;50.248;8.252;2023-04-03T05:42:27;1.90;99.90
37408;DHT22;24866;50.248;8.252;2023-04-03T05:44:57;1.70;99.90
37408;DHT22;24866;50.248;8.252;2023-04-03T05:47:27;1.90;99.90
37408;DHT22;24866;50.248;8.252;2023-04-03T05:49:59;2.00;99.90
37408;DHT22;24866;50.248;8.252;2023-04-03T05:52:31;1.90;99.90
37408;DHT22;24866;50.248;8.252;2023-04-03T05:55:03;2.00;99.90
37408;DHT22;24866;50.248;8.252;2023-04-03T05:57:34;2.00;99.90
37408;DHT22;24866;50.248;8.252;2023-04-03T06:00:10;2.00;99.90
37408;DHT22;24866;50.248;8.252;2023-04-03T06:02:44;2.00;99.90
37408;DHT22;24866;50.248;8.252;2023-04-03T06:05:15;2.10;99.90
37408;DHT22;24866;50.248;8.252;2023-04-03T06:07:46;2.10;99.90
37408;DHT22;24866;50.248;8.252;2023-04-03T06:10:18;1.90;99.90
37408;DHT22;24866;50.248;8.252;2023-04-03T06:12:48;1.90;99.90
37408;DHT22;24866;50.248;8.252;2023-04-03T06:15:19;2.00;99.90
37408;DHT22;24866;50.248;8.252;2023-04-03T06:17:49;2.00;99.90
37408;DHT22;24866;50.248;8.252;2023-04-03T06:20:21;2.00;99.90
37408;DHT22;24866;50.248;8.252;2023-04-03T06:22:51;2.00;99.90
37408;DHT22;24866;50.248;8.252;2023-04-03T06:25:28;2.10;99.90
37408;DHT22;24866;50.248;8.252;2023-04-03T06:28:10;2.30;99.90
37408;DHT22;24866;50.248;8.252;2023-04-03T06:30:40;2.10;99.90
37408;DHT22;24866;50.248;8.252;2023-04-03T06:33:11;2.20;99.90
37408;DHT22;24866;50.248;8.252;2023-04-03T06:35:42;2.50;99.90
37408;DHT22;24866;50.248;8.252;2023-04-03T06:38:12;2.40;99.90
37408;DHT22;24866;50.248;8.252;2023-04-03T06:40:42;2.40;99.90
37408;DHT22;24866;50.248;8.252;2023-04-03T06:43:12;2.50;99.90
37408;DHT22;24866;50.248;8.252;2023-04-03T06:45:42;2.60;99.90
37408;DHT22;24866;50.248;8.252;2023-04-03T06:48:12;2.60;99.90
37408;DHT22;24866;50.248;8.252;2023-04-03T06:50:44;2.70;99.90
37408;DHT22;24866;50.248;8.252;2023-04-03T06:53:14;2.70;99.90
37408;DHT22;24866;50.248;8.252;2023-04-03T06:55:45;2.90;99.90
37408;DHT22;24866;50.248;8.252;2023-04-03T06:58:15;2.90;99.90
37408;DHT22;24866;50.248;8.252;2023-04-03T07:00:46;2.90;99.90
37408;DHT22;24866;50.248;8.252;2023-04-03T07:03:16;3.00;99.90
37408;DHT22;24866;50.248;8.252;2023-04-03T07:05:52;3.20;99.90
37408;DHT22;24866;50.248;8.252;2023-04-03T07:08:25;3.20;99.90
37408;DHT22;24866;50.248;8.252;2023-04-03T07:10:55;3.00;99.90
37408;DHT22;24866;50.248;8.252;2023-04-03T07:13:25;3.20;99.90
37408;DHT22;24866;50.248;8.252;2023-04-03T07:15:55;3.50;99.90
37408;DHT22;24866;50.248;8.252;2023-04-03T07:18:25;3.40;99.90
37408;DHT22;24866;50.248;8.252;2023-04-03T07:20:57;3.60;99.90
37408;DHT22;24866;50.248;8.252;2023-04-03T07:23:27;3.40;99.90
37408;DHT22;24866;50.248;8.252;2023-04-03T07:25:57;3.40;99.90
37408;DHT22;24866;50.248;8.252;2023-04-03T07:28:27;3.70;99.90
37408;DHT22;24866;50.248;8.252;2023-04-03T07:31:01;3.90;99.90
37408;DHT22;24866;50.248;8.252;2023-04-03T07:33:32;4.10;99.90
37408;DHT22;24866;50.248;8.252;2023-04-03T07:36:05;3.80;99.90
37408;DHT22;24866;50.248;8.252;2023-04-03T07:38:36;3.90;99.90
37408;DHT22;24866;50.248;8.252;2023-04-03T07:41:06;4.20;99.90
37408;DHT22;24866;50.248;8.252;2023-04-03T07:43:41;4.40;99.90
37408;DHT22;24866;50.248;8.252;2023-04-03T07:46:12;4.00;99.90
37408;DHT22;24866;50.248;8.252;2023-04-03T07:48:42;4.10;99.90
37408;DHT22;24866;50.248;8.252;2023-04-03T07:51:14;4.40;99.90
37408;DHT22;24866;50.248;8.252;2023-04-03T07:53:44;4.70;99.90
37408;DHT22;24866;50.248;8.252;2023-04-03T07:56:16;4.90;99.90
37408;DHT22;24866;50.248;8.252;2023-04-03T07:58:47;4.90;99.90
37408;DHT22;24866;50.248;8.252;2023-04-03T08:01:17;4.40;99.90
37408;DHT22;24866;50.248;8.252;2023-04-03T08:03:49;4.70;99.90
37408;DHT22;24866;50.248;8.252;2023-04-03T08:06:21;4.80;99.90
37408;DHT22;24866;50.248;8.252;2023-04-03T08:08:51;4.80;99.90
37408;DHT22;24866;50.248;8.252;2023-04-03T08:11:22;5.00;99.90
37408;DHT22;24866;50.248;8.252;2023-04-03T08:13:54;4.80;99.90
37408;DHT22;24866;50.248;8.252;2023-04-03T08:16:25;4.60;99.90
37408;DHT22;24866;50.248;8.252;2023-04-03T08:18:56;4.70;99.90
37408;DHT22;24866;50.248;8.252;2023-04-03T08:21:28;4.90;99.90
37408;DHT22;24866;50.248;8.252;2023-04-03T08:23:59;5.10;99.90
37408;DHT22;24866;50.248;8.252;2023-04-03T08:26:29;5.30;99.90
37408;DHT22;24866;50.248;8.252;2023-04-03T08:29:00;5.30;99.90
37408;DHT22;24866;50.248;8.252;2023-04-03T08:31:30;5.40;99.90
37408;DHT22;24866;50.248;8.252;2023-04-03T08:34:01;5.70;99.90
37408;DHT22;24866;50.248;8.252;2023-04-03T08:36:32;5.60;99.90
37408;DHT22;24866;50.248;8.252;2023-04-03T08:39:02;5.70;99.90
37408;DHT22;24866;50.248;8.252;2023-04-03T08:41:35;5.50;99.90
37408;DHT22;24866;50.248;8.252;2023-04-03T08:44:14;6.30;99.90
37408;DHT22;24866;50.248;8.252;2023-04-03T08:47:01;6.40;99.90
37408;DHT22;24866;50.248;8.252;2023-04-03T08:49:36;6.50;99.90
37408;DHT22;24866;50.248;8.252;2023-04-03T08:52:12;6.60;99.90
37408;DHT22;24866;50.248;8.252;2023-04-03T08:54:50;6.40;1.00
37408;DHT22;24866;50.248;8.252;2023-04-03T08:57:28;6.50;1.00
37408;DHT22;24866;50.248;8.252;2023-04-03T09:00:11;6.60;1.00
37408;DHT22;24866;50.248;8.252;2023-04-03T09:02:45;6.70;99.90
37408;DHT22;24866;50.248;8.252;2023-04-03T09:05:18;6.80;99.90
37408;DHT22;24866;50.248;8.252;2023-04-03T09:07:57;6.90;99.90
37408;DHT22;24866;50.248;8.252;2023-04-03T09:10:30;6.70;1.00
37408;DHT22;24866;50.248;8.252;2023-04-03T09:13:06;6.90;1.00
37408;DHT22;24866;50.248;8.252;2023-04-03T09:15:38;7.10;1.00
37408;DHT22;24866;50.248;8.252;2023-04-03T09:18:13;7.10;99.90
37408;DHT22;24866;50.248;8.252;2023-04-03T09:20:53;6.90;47.10
37408;DHT22;24866;50.248;8.252;2023-04-03T09:23:29;6.80;1.00
37408;DHT22;24866;50.248;8.252;2023-04-03T09:26:04;6.80;1.00
37408;DHT22;24866;50.248;8.252;2023-04-03T09:28:39;6.90;1.00
37408;DHT22;24866;50.248;8.252;2023-04-03T09:31:18;7.00;1.00
37408;DHT22;24866;50.248;8.252;2023-04-03T09:33:50;6.80;99.90
37408;DHT22;24866;50.248;8.252;2023-04-03T09:36:49;6.60;99.90
37408;DHT22;24866;50.248;8.252;2023-04-03T09:39:22;6.90;99.90
37408;DHT22;24866;50.248;8.252;2023-04-03T09:41:58;6.60;1.00
37408;DHT22;24866;50.248;8.252;2023-04-03T09:44:31;6.40;1.00
37408;DHT22;24866;50.248;8.252;2023-04-03T09:47:18;6.90;1.00
37408;DHT22;24866;50.248;8.252;2023-04-03T09:49:49;7.10;47.20
37408;DHT22;24866;50.248;8.252;2023-04-03T09:52:23;7.30;85.70
37408;DHT22;24866;50.248;8.252;2023-04-03T09:55:07;7.40;31.00
37408;DHT22;24866;50.248;8.252;2023-04-03T09:57:40;7.40;1.00
37408;DHT22;24866;50.248;8.252;2023-04-03T10:00:20;7.50;1.00
37408;DHT22;24866;50.248;8.252;2023-04-03T10:02:53;7.80;1.00
37408;DHT22;24866;50.248;8.252;2023-04-03T10:05:31;7.10;1.00
37408;DHT22;24866;50.248;8.252;2023-04-03T10:08:21;7.30;1.00
37408;DHT22;24866;50.248;8.252;2023-04-03T10:11:15;7.50;1.00
37408;DHT22;24866;50.248;8.252;2023-04-03T10:13:56;7.40;99.90
37408;DHT22;24866;50.248;8.252;2023-04-03T10:16:34;7.30;99.90
37408;DHT22;24866;50.248;8.252;2023-04-03T10:19:19;7.30;99.90
37408;DHT22;24866;50.248;8.252;2023-04-03T10:21:58;7.20;99.90
37408;DHT22;24866;50.248;8.252;2023-04-03T10:24:36;7.10;98.30
37408;DHT22;24866;50.248;8.252;2023-04-03T10:27:12;6.80;1.00
37408;DHT22;24866;50.248;8.252;2023-04-03T10:29:50;7.30;41.00
37408;DHT22;24866;50.248;8.252;2023-04-03T10:32:44;7.60;99.90
37408;DHT22;24866;50.248;8.252;2023-04-03T10:35:20;7.70;98.80
37408;DHT22;24866;50.248;8.252;2023-04-03T10:38:02;7.40;1.00
37408;DHT22;24866;50.248;8.252;2023-04-03T10:40:38;7.20;1.00
37408;DHT22;24866;50.248;8.252;2023-04-03T10:43:21;7.30;1.00
37408;DHT22;24866;50.248;8.252;2023-04-03T10:45:57;7.50;1.00
37408;DHT22;24866;50.248;8.252;2023-04-03T10:48:37;7.90;1.00
37408;DHT22;24866;50.248;8.252;2023-04-03T10:51:20;7.90;1.00
37408;DHT22;24866;50.248;8.252;2023-04-03T10:53:56;7.70;1.00
37408;DHT22;24866;50.248;8.252;2023-04-03T10:56:34;8.20;1.00
37408;DHT22;24866;50.248;8.252;2023-04-03T10:59:17;8.40;1.00
37408;DHT22;24866;50.248;8.252;2023-04-03T11:01:51;8.50;1.00
37408;DHT22;24866;50.248;8.252;2023-04-03T11:04:23;8.30;1.00
37408;DHT22;24866;50.248;8.252;2023-04-03T11:06:58;8.30;1.00
37408;DHT22;24866;50.248;8.252;2023-04-03T11:09:32;8.30;1.00
37408;DHT22;24866;50.248;8.252;2023-04-03T11:12:11;8.20;1.00
37408;DHT22;24866;50.248;8.252;2023-04-03T11:14:45;8.30;99.90
37408;DHT22;24866;50.248;8.252;2023-04-03T11:17:27;8.60;1.00
37408;DHT22;24866;50.248;8.252;2023-04-03T11:20:03;9.20;1.00
37408;DHT22;24866;50.248;8.252;2023-04-03T11:22:39;9.20;1.00
37408;DHT22;24866;50.248;8.252;2023-04-03T11:25:17;9.10;1.00
37408;DHT22;24866;50.248;8.252;2023-04-03T11:27:54;9.00;99.90
37408;DHT22;24866;50.248;8.252;2023-04-03T11:30:30;9.10;99.90
37408;DHT22;24866;50.248;8.252;2023-04-03T11:36:03;8.90;99.90
37408;DHT22;24866;50.248;8.252;2023-04-03T11:38:37;9.10;99.90
37408;DHT22;24866;50.248;8.252;2023-04-03T11:41:10;9.10;99.90
37408;DHT22;24866;50.248;8.252;2023-04-03T11:43:56;8.70;31.10
37408;DHT22;24866;50.248;8.252;2023-04-03T11:46:55;8.80;1.00
37408;DHT22;24866;50.248;8.252;2023-04-03T11:49:52;8.60;1.00
37408;DHT22;24866;50.248;8.252;2023-04-03T11:53:00;8.80;1.00
37408;DHT22;24866;50.248;8.252;2023-04-03T11:55:54;9.20;1.00
37408;DHT22;24866;50.248;8.252;2023-04-03T11:58:26;9.20;1.00
37408;DHT22;24866;50.248;8.252;2023-04-03T12:01:09;9.30;1.00
37408;DHT22;24866;50.248;8.252;2023-04-03T12:04:02;9.20;1.00
37408;DHT22;24866;50.248;8.252;2023-04-03T12:09:58;9.10;1.00
37408;DHT22;24866;50.248;8.252;2023-04-03T12:12:32;9.50;1.00
37408;DHT22;24866;50.248;8.252;2023-04-03T12:15:20;9.80;1.00
37408;DHT22;24866;50.248;8.252;2023-04-03T12:17:51;9.60;1.00
37408;DHT22;24866;50.248;8.252;2023-04-03T12:20:53;9.50;1.00
37408;DHT22;24866;50.248;8.252;2023-04-03T12:23:29;9.70;1.00
37408;DHT22;24866;50.248;8.252;2023-04-03T12:26:06;9.70;1.00
37408;DHT22;24866;50.248;8.252;2023-04-03T12:28:51;9.80;1.00
37408;DHT22;24866;50.248;8.252;2023-04-03T12:31:25;10.10;1.00
37408;DHT22;24866;50.248;8.252;2023-04-03T12:34:18;10.40;1.00
37408;DHT22;24866;50.248;8.252;2023-04-03T12:37:00;10.10;1.00
37408;DHT22;24866;50.248;8.252;2023-04-03T12:39:50;10.20;1.00
37408;DHT22;24866;50.248;8.252;2023-04-03T12:42:32;10.00;99.90
37408;DHT22;24866;50.248;8.252;2023-04-03T12:45:13;9.90;99.90
37408;DHT22;24866;50.248;8.252;2023-04-03T12:47:45;9.60;99.90
37408;DHT22;24866;50.248;8.252;2023-04-03T12:50:22;8.90;29.90
37408;DHT22;24866;50.248;8.252;2023-04-03T12:53:01;8.70;1.00
37408;DHT22;24866;50.248;8.252;2023-04-03T12:55:33;9.40;90.80
37408;DHT22;24866;50.248;8.252;2023-04-03T12:58:14;9.70;99.90
37408;DHT22;24866;50.248;8.252;2023-04-03T13:00:45;10.00;99.90
37408;DHT22;24866;50.248;8.252;2023-04-03T13:03:25;10.00;99.90
37408;DHT22;24866;50.248;8.252;2023-04-03T13:06:01;9.60;1.00
37408;DHT22;24866;50.248;8.252;2023-04-03T13:08:34;9.70;1.00
37408;DHT22;24866;50.248;8.252;2023-04-03T13:11:10;9.70;1.00
37408;DHT22;24866;50.248;8.252;2023-04-03T13:13:54;9.60;1.00
37408;DHT22;24866;50.248;8.252;2023-04-03T13:16:25;9.80;1.00
37408;DHT22;24866;50.248;8.252;2023-04-03T13:18:56;9.90;1.00
37408;DHT22;24866;50.248;8.252;2023-04-03T13:21:29;10.40;1.00
37408;DHT22;24866;50.248;8.252;2023-04-03T13:24:05;10.30;1.00
37408;DHT22;24866;50.248;8.252;2023-04-03T13:26:36;10.10;1.00
37408;DHT22;24866;50.248;8.252;2023-04-03T13:29:19;10.00;1.00
37408;DHT22;24866;50.248;8.252;2023-04-03T13:31:53;9.90;1.00
37408;DHT22;24866;50.248;8.252;2023-04-03T13:34:26;10.10;1.00
37408;DHT22;24866;50.248;8.252;2023-04-03T13:37:00;9.80;1.00
37408;DHT22;24866;50.248;8.252;2023-04-03T13:39:35;10.10;1.00
37408;DHT22;24866;50.248;8.252;2023-04-03T13:42:16;10.40;1.00
37408;DHT22;24866;50.248;8.252;2023-04-03T13:44:47;10.70;1.00
37408;DHT22;24866;50.248;8.252;2023-04-03T13:47:21;10.30;1.00
37408;DHT22;24866;50.248;8.252;2023-04-03T13:50:12;10.40;1.00
37408;DHT22;24866;50.248;8.252;2023-04-03T13:52:46;10.70;1.00
37408;DHT22;24866;50.248;8.252;2023-04-03T13:55:21;10.50;1.00
37408;DHT22;24866;50.248;8.252;2023-04-03T13:57:56;10.60;1.00
37408;DHT22;24866;50.248;8.252;2023-04-03T14:00:36;10.50;1.00
37408;DHT22;24866;50.248;8.252;2023-04-03T14:03:19;10.10;99.90
37408;DHT22;24866;50.248;8.252;2023-04-03T14:05:51;10.20;99.90
37408;DHT22;24866;50.248;8.252;2023-04-03T14:08:22;10.10;99.90
37408;DHT22;24866;50.248;8.252;2023-04-03T14:10:55;10.40;99.90
37408;DHT22;24866;50.248;8.252;2023-04-03T14:13:25;10.80;99.90
37408;DHT22;24866;50.248;8.252;2023-04-03T14:15:55;10.70;99.90
37408;DHT22;24866;50.248;8.252;2023-04-03T14:18:25;10.60;99.90
37408;DHT22;24866;50.248;8.252;2023-04-03T14:20:55;10.40;99.90
37408;DHT22;24866;50.248;8.252;2023-04-03T14:23:26;10.10;99.90
37408;DHT22;24866;50.248;8.252;2023-04-03T14:25:59;10.20;99.90
37408;DHT22;24866;50.248;8.252;2023-04-03T14:28:31;10.70;99.90
37408;DHT22;24866;50.248;8.252;2023-04-03T14:31:02;10.80;99.90
37408;DHT22;24866;50.248;8.252;2023-04-03T14:33:32;10.60;99.90
37408;DHT22;24866;50.248;8.252;2023-04-03T14:36:08;10.50;99.90
37408;DHT22;24866;50.248;8.252;2023-04-03T14:38:41;10.50;99.90
37408;DHT22;24866;50.248;8.252;2023-04-03T14:41:15;10.30;99.90
37408;DHT22;24866;50.248;8.252;2023-04-03T14:43:47;10.50;99.90
37408;DHT22;24866;50.248;8.252;2023-04-03T14:46:19;10.40;94.00
37408;DHT22;24866;50.248;8.252;2023-04-03T14:48:49;10.70;99.90
37408;DHT22;24866;50.248;8.252;2023-04-03T14:51:20;10.20;1.00
37408;DHT22;24866;50.248;8.252;2023-04-03T14:53:52;9.80;1.00
37408;DHT22;24866;50.248;8.252;2023-04-03T14:56:28;10.20;1.00
37408;DHT22;24866;50.248;8.252;2023-04-03T14:59:00;10.90;52.10
37408;DHT22;24866;50.248;8.252;2023-04-03T15:01:30;10.60;1.00
37408;DHT22;24866;50.248;8.252;2023-04-03T15:04:00;10.50;1.00
37408;DHT22;24866;50.248;8.252;2023-04-03T15:06:30;10.20;1.00
37408;DHT22;24866;50.248;8.252;2023-04-03T15:09:01;10.20;1.00
37408;DHT22;24866;50.248;8.252;2023-04-03T15:11:33;10.10;1.00
37408;DHT22;24866;50.248;8.252;2023-04-03T15:14:03;10.80;1.00
37408;DHT22;24866;50.248;8.252;2023-04-03T15:16:33;11.40;1.00
37408;DHT22;24866;50.248;8.252;2023-04-03T15:19:03;10.90;1.00
37408;DHT22;24866;50.248;8.252;2023-04-03T15:21:33;11.00;1.00
37408;DHT22;24866;50.248;8.252;2023-04-03T15:24:03;10.90;1.00
37408;DHT22;24866;50.248;8.252;2023-04-03T15:26:35;11.00;1.00
37408;DHT22;24866;50.248;8.252;2023-04-03T15:29:05;10.80;1.00
37408;DHT22;24866;50.248;8.252;2023-04-03T15:31:35;10.80;1.00
37408;DHT22;24866;50.248;8.252;2023-04-03T15:34:06;9.90;1.00
37408;DHT22;24866;50.248;8.252;2023-04-03T15:36:36;9.90;1.00
37408;DHT22;24866;50.248;8.252;2023-04-03T15:39:06;9.40;1.00
37408;DHT22;24866;50.248;8.252;2023-04-03T15:41:39;9.60;1.00
37408;DHT22;24866;50.248;8.252;2023-04-03T15:44:10;9.80;1.00
37408;DHT22;24866;50.248;8.252;2023-04-03T15:46:41;10.00;1.00
37408;DHT22;24866;50.248;8.252;2023-04-03T15:49:11;10.00;1.00
37408;DHT22;24866;50.248;8.252;2023-04-03T15:51:41;10.00;1.00
37408;DHT22;24866;50.248;8.252;2023-04-03T15:54:11;10.00;1.00
37408;DHT22;24866;50.248;8.252;2023-04-03T15:56:43;9.90;1.00
37408;DHT22;24866;50.248;8.252;2023-04-03T15:59:13;10.00;1.00
37408;DHT22;24866;50.248;8.252;2023-04-03T16:01:44;9.60;99.90
37408;DHT22;24866;50.248;8.252;2023-04-03T16:04:14;9.60;99.90
37408;DHT22;24866;50.248;8.252;2023-04-03T16:06:45;9.80;99.90
37408;DHT22;24866;50.248;8.252;2023-04-03T16:09:15;9.80;99.90
37408;DHT22;24866;50.248;8.252;2023-04-03T16:11:47;9.70;99.90
37408;DHT22;24866;50.248;8.252;2023-04-03T16:14:17;9.70;99.90
37408;DHT22;24866;50.248;8.252;2023-04-03T16:16:49;9.40;99.90
37408;DHT22;24866;50.248;8.252;2023-04-03T16:19:19;9.60;99.90
37408;DHT22;24866;50.248;8.252;2023-04-03T16:21:50;9.40;99.90
37408;DHT22;24866;50.248;8.252;2023-04-03T16:24:22;9.10;99.90
37408;DHT22;24866;50.248;8.252;2023-04-03T16:26:55;9.50;99.90
37408;DHT22;24866;50.248;8.252;2023-04-03T16:29:25;9.50;99.90
37408;DHT22;24866;50.248;8.252;2023-04-03T16:31:56;9.40;99.90
37408;DHT22;24866;50.248;8.252;2023-04-03T16:34:27;8.80;99.90